createdAt,value
2023-05-22T00:01:18.957Z,2.50
2023-05-22T00:03:50.203Z,2.70
2023-05-22T00:06:19.450Z,2.60
2023-05-22T00:08:48.161Z,2.50
2023-05-22T00:11:19.265Z,2.80
2023-05-22T00:13:49.440Z,2.80
2023-05-22T00:16:19.902Z,2.40
2023-05-22T00:18:51.544Z,2.50
2023-05-22T00:21:20.148Z,2.60
2023-05-22T00:23:51.207Z,3.10
2023-05-22T00:26:22.943Z,2.30
2023-05-22T00:28:58.680Z,2.70
2023-05-22T00:31:27.464Z,2.70
2023-05-22T00:33:57.004Z,2.90
2023-05-22T00:36:26.769Z,3.10
2023-05-22T00:38:57.057Z,3.00
2023-05-22T00:41:26.912Z,3.50
2023-05-22T00:43:56.016Z,3.00
2023-05-22T00:46:25.355Z,3.10
2023-05-22T00:48:56.864Z,3.00
2023-05-22T00:51:26.094Z,2.60
2023-05-22T00:53:55.203Z,3.20
2023-05-22T00:56:26.605Z,3.10
2023-05-22T00:58:56.624Z,2.80
2023-05-22T01:01:32.833Z,3.10
2023-05-22T01:04:07.319Z,3.00
2023-05-22T01:06:37.202Z,3.10
2023-05-22T01:09:12.142Z,3.10
2023-05-22T01:11:50.771Z,2.20
2023-05-22T01:14:29.824Z,2.90
2023-05-22T01:17:08.599Z,2.90
2023-05-22T01:20:06.957Z,2.80
2023-05-22T01:23:10.444Z,3.10
2023-05-22T01:26:17.738Z,2.60
2023-05-22T01:29:10.920Z,2.70
2023-05-22T01:31:41.524Z,2.20
2023-05-22T01:34:12.258Z,3.30
2023-05-22T01:36:45.504Z,2.90
2023-05-22T01:39:22.498Z,2.90
2023-05-22T01:41:51.194Z,2.50
2023-05-22T01:44:21.090Z,3.00
2023-05-22T01:46:50.488Z,3.20
2023-05-22T01:49:19.985Z,2.60
2023-05-22T01:51:53.939Z,2.60
2023-05-22T01:54:32.579Z,2.80
2023-05-22T01:59:36.849Z,2.90
2023-05-22T02:02:08.519Z,2.80
2023-05-22T02:04:42.242Z,3.30
2023-05-22T02:07:12.650Z,2.70
2023-05-22T02:09:50.267Z,2.60
2023-05-22T02:12:23.420Z,2.70
2023-05-22T02:14:52.189Z,3.20
2023-05-22T02:17:23.071Z,3.10
2023-05-22T02:19:52.558Z,2.90
2023-05-22T02:22:23.996Z,3.10
2023-05-22T02:24:55.981Z,3.10
2023-05-22T02:27:28.132Z,2.90
2023-05-22T02:29:57.225Z,3.00
2023-05-22T02:32:32.970Z,2.70
2023-05-22T02:35:04.428Z,3.10
2023-05-22T02:37:36.334Z,2.60
2023-05-22T02:40:07.709Z,3.20
2023-05-22T02:42:39.417Z,2.80
2023-05-22T02:45:10.572Z,3.10
2023-05-22T02:47:40.642Z,3.20
2023-05-22T02:50:23.097Z,2.90
2023-05-22T02:52:53.044Z,2.90
2023-05-22T02:55:22.526Z,3.40
2023-05-22T02:57:52.351Z,3.70
2023-05-22T03:00:25.036Z,3.30
2023-05-22T03:02:54.083Z,3.30
2023-05-22T03:05:22.905Z,3.40
2023-05-22T03:07:53.839Z,3.30
2023-05-22T03:10:22.988Z,2.90
2023-05-22T03:12:51.737Z,2.90
2023-05-22T03:15:22.810Z,3.20
2023-05-22T03:17:57.882Z,2.90
2023-05-22T03:20:32.124Z,3.20
2023-05-22T03:23:06.856Z,3.00
2023-05-22T03:28:17.199Z,3.10
2023-05-22T03:30:46.191Z,3.70
2023-05-22T03:33:31.439Z,2.90
2023-05-22T03:36:00.908Z,3.90
2023-05-22T03:38:30.203Z,3.70
2023-05-22T03:40:59.807Z,3.70
2023-05-22T03:43:29.288Z,3.30
2023-05-22T03:46:07.973Z,3.70
2023-05-22T03:48:53.426Z,3.30
2023-05-22T03:51:22.293Z,4.20
2023-05-22T03:53:51.896Z,3.50
2023-05-22T03:56:33.724Z,3.50
2023-05-22T03:59:03.186Z,3.50
2023-05-22T04:01:46.426Z,3.70
2023-05-22T04:04:19.759Z,3.50
2023-05-22T04:06:54.611Z,3.20
2023-05-22T04:09:32.135Z,4.00
2023-05-22T04:12:04.158Z,3.40
2023-05-22T04:14:33.605Z,3.20
2023-05-22T04:17:11.106Z,3.90
2023-05-22T04:19:41.049Z,3.50
2023-05-22T04:22:14.576Z,3.90
2023-05-22T04:24:50.516Z,3.70
2023-05-22T04:27:22.137Z,3.60
2023-05-22T04:29:53.417Z,3.90
2023-05-22T04:32:25.911Z,3.80
2023-05-22T04:35:01.528Z,3.30
2023-05-22T04:37:41.715Z,3.30
2023-05-22T04:40:17.837Z,3.70
2023-05-22T04:42:49.889Z,3.10
2023-05-22T04:45:35.059Z,3.60
2023-05-22T04:48:11.425Z,3.50
2023-05-22T04:50:40.804Z,4.30
2023-05-22T04:53:13.220Z,4.20
2023-05-22T04:55:46.506Z,4.20
2023-05-22T04:58:17.214Z,4.10
2023-05-22T05:00:51.892Z,4.00
2023-05-22T05:03:22.228Z,4.00
2023-05-22T05:05:51.381Z,4.00
2023-05-22T05:08:23.238Z,4.10
2023-05-22T05:10:52.543Z,3.70
2023-05-22T05:13:26.841Z,4.20
2023-05-22T05:15:59.646Z,3.80
2023-05-22T05:18:29.173Z,3.80
2023-05-22T05:21:07.456Z,4.00
2023-05-22T05:23:37.395Z,4.00
2023-05-22T05:26:09.465Z,4.50
2023-05-22T05:28:45.853Z,3.60
2023-05-22T05:31:17.883Z,4.40
2023-05-22T05:33:52.738Z,4.10
2023-05-22T05:37:00.712Z,4.20
2023-05-22T05:39:29.846Z,3.80
2023-05-22T05:42:03.172Z,4.40
2023-05-22T05:44:32.195Z,4.00
2023-05-22T05:47:02.269Z,4.40
2023-05-22T05:49:32.714Z,4.10
2023-05-22T05:52:02.516Z,4.40
2023-05-22T05:54:32.331Z,3.90
2023-05-22T05:57:07.070Z,3.90
2023-05-22T05:59:36.848Z,4.60
2023-05-22T06:02:23.962Z,4.30
2023-05-22T06:04:56.090Z,4.10
2023-05-22T06:07:25.507Z,4.20
2023-05-22T06:09:56.248Z,4.00
2023-05-22T06:12:49.457Z,4.20
2023-05-22T06:15:42.905Z,3.80
2023-05-22T06:18:22.108Z,4.20
2023-05-22T06:20:52.680Z,4.10
2023-05-22T06:23:24.531Z,4.00
2023-05-22T06:25:54.999Z,4.50
2023-05-22T06:28:27.813Z,3.90
2023-05-22T06:30:57.534Z,3.50
2023-05-22T06:33:42.640Z,3.40
2023-05-22T06:36:12.108Z,3.20
2023-05-22T06:38:41.591Z,3.40
2023-05-22T06:41:18.802Z,3.20
2023-05-22T06:43:49.214Z,3.00
2023-05-22T06:46:25.145Z,2.70
2023-05-22T06:49:08.251Z,2.90
2023-05-22T06:51:42.608Z,2.60
2023-05-22T06:54:14.593Z,2.40
2023-05-22T06:56:46.943Z,3.10
2023-05-22T06:59:20.378Z,2.40
2023-05-22T07:02:16.529Z,2.50
2023-05-22T07:05:09.254Z,2.60
2023-05-22T07:07:49.677Z,2.60
2023-05-22T07:10:20.683Z,2.60
2023-05-22T07:12:49.444Z,3.00
2023-05-22T07:15:25.622Z,2.60
2023-05-22T07:17:55.687Z,2.90
2023-05-22T07:20:25.749Z,2.90
2023-05-22T07:25:42.652Z,3.20
2023-05-22T07:28:12.527Z,3.50
2023-05-22T07:30:51.631Z,3.90
2023-05-22T07:33:22.980Z,2.40
2023-05-22T07:35:52.638Z,2.60
2023-05-22T07:38:21.875Z,3.00
2023-05-22T07:40:58.317Z,2.90
2023-05-22T07:43:27.826Z,2.80
2023-05-22T07:45:57.529Z,2.90
2023-05-22T07:48:28.675Z,2.60
2023-05-22T07:50:57.770Z,3.00
2023-05-22T07:53:27.692Z,3.40
2023-05-22T07:55:58.481Z,3.40
2023-05-22T07:58:27.964Z,3.10
2023-05-22T08:00:57.614Z,2.70
2023-05-22T08:03:28.075Z,2.90
2023-05-22T08:05:58.782Z,2.40
2023-05-22T08:08:30.465Z,2.60
2023-05-22T08:11:04.415Z,2.60
2023-05-22T08:13:35.247Z,3.70
2023-05-22T08:16:04.328Z,3.30
2023-05-22T08:18:33.156Z,4.40
2023-05-22T08:21:05.694Z,3.50
2023-05-22T08:23:36.338Z,4.40
2023-05-22T08:26:08.207Z,3.70
2023-05-22T08:28:41.666Z,3.40
2023-05-22T08:31:11.253Z,2.80
2023-05-22T08:33:40.520Z,3.20
2023-05-22T08:36:09.804Z,3.50
2023-05-22T08:38:38.995Z,2.80
2023-05-22T08:41:10.596Z,2.30
2023-05-22T08:43:40.471Z,2.40
2023-05-22T08:46:10.701Z,2.60
2023-05-22T08:48:41.824Z,2.50
2023-05-22T08:51:16.344Z,2.70
2023-05-22T08:53:48.690Z,4.00
2023-05-22T08:56:18.793Z,2.50
2023-05-22T08:58:47.769Z,2.20
2023-05-22T09:01:20.843Z,2.00
2023-05-22T09:03:54.765Z,2.20
2023-05-22T09:06:23.460Z,2.10
2023-05-22T09:08:52.899Z,2.40
2023-05-22T09:11:23.049Z,2.30
2023-05-22T09:13:52.596Z,2.90
2023-05-22T09:16:22.044Z,2.50
2023-05-22T09:18:51.011Z,2.50
2023-05-22T09:21:29.446Z,2.30
2023-05-22T09:24:01.725Z,1.80
2023-05-22T09:26:34.522Z,2.10
2023-05-22T09:29:06.811Z,3.10
2023-05-22T09:31:43.371Z,2.80
2023-05-22T09:34:17.383Z,2.10
2023-05-22T09:36:46.650Z,2.10
2023-05-22T09:39:18.864Z,2.20
2023-05-22T09:41:47.592Z,2.50
2023-05-22T09:44:19.677Z,2.20
2023-05-22T09:46:48.801Z,2.30
2023-05-22T09:49:20.453Z,2.20
2023-05-22T09:51:54.035Z,2.20
2023-05-22T09:54:27.630Z,2.20
2023-05-22T09:57:02.175Z,2.30
2023-05-22T09:59:38.407Z,2.70
2023-05-22T10:02:12.840Z,2.90
2023-05-22T10:04:43.761Z,2.20
2023-05-22T10:07:14.087Z,2.50
2023-05-22T10:09:48.664Z,2.50
2023-05-22T10:12:21.768Z,2.20
2023-05-22T10:14:55.222Z,2.40
2023-05-22T10:17:25.607Z,2.30
2023-05-22T10:19:58.248Z,2.40
2023-05-22T10:22:29.183Z,2.10
2023-05-22T10:25:00.171Z,1.90
2023-05-22T10:27:29.055Z,2.00
2023-05-22T10:30:10.801Z,2.20
2023-05-22T10:32:47.074Z,2.40
2023-05-22T10:35:23.988Z,2.20
2023-05-22T10:37:56.841Z,2.60
2023-05-22T10:40:29.724Z,2.10
2023-05-22T10:43:06.847Z,2.30
2023-05-22T10:45:37.256Z,2.10
2023-05-22T10:48:11.215Z,2.10
2023-05-22T10:50:49.947Z,2.30
2023-05-22T10:53:27.388Z,2.20
2023-05-22T10:58:30.217Z,2.00
2023-05-22T11:01:17.331Z,2.20
2023-05-22T11:03:54.321Z,2.10
2023-05-22T11:06:49.784Z,1.90
2023-05-22T11:09:26.677Z,2.10
2023-05-22T11:12:20.178Z,2.00
2023-05-22T11:14:53.835Z,2.00
2023-05-22T11:17:24.122Z,2.00
2023-05-22T11:20:01.955Z,2.10
2023-05-22T11:22:36.155Z,2.00
2023-05-22T11:25:09.082Z,1.60
2023-05-22T11:27:40.454Z,1.60
2023-05-22T11:30:22.199Z,1.60
2023-05-22T11:32:52.147Z,1.70
2023-05-22T11:35:22.732Z,2.00
2023-05-22T11:37:53.354Z,2.00
2023-05-22T11:40:25.022Z,2.10
2023-05-22T11:42:54.292Z,1.60
2023-05-22T11:45:23.654Z,2.00
2023-05-22T11:47:52.677Z,1.80
2023-05-22T11:50:40.003Z,1.80
2023-05-22T11:55:45.685Z,1.80
2023-05-22T11:58:16.134Z,2.00
2023-05-22T12:00:47.372Z,2.20
2023-05-22T12:03:19.191Z,1.70
2023-05-22T12:05:53.489Z,1.80
2023-05-22T12:08:22.550Z,1.80
2023-05-22T12:10:53.812Z,2.00
2023-05-22T12:13:30.136Z,2.10
2023-05-22T12:16:00.441Z,1.80
2023-05-22T12:18:36.389Z,1.80
2023-05-22T12:21:07.732Z,2.00
2023-05-22T12:23:44.680Z,1.80
2023-05-22T12:26:13.574Z,1.70
2023-05-22T12:28:42.256Z,1.60
2023-05-22T12:31:11.291Z,2.00
2023-05-22T12:33:40.887Z,1.90
2023-05-22T12:36:11.766Z,2.20
2023-05-22T12:38:41.384Z,2.20
2023-05-22T12:41:10.695Z,2.10
2023-05-22T12:43:42.196Z,2.00
2023-05-22T12:46:18.544Z,1.90
2023-05-22T12:48:47.802Z,1.80
2023-05-22T12:51:19.374Z,1.90
2023-05-22T12:53:49.375Z,2.10
2023-05-22T12:56:19.661Z,2.10
2023-05-22T12:58:48.310Z,2.10
2023-05-22T13:01:21.157Z,2.10
2023-05-22T13:03:50.838Z,1.90
2023-05-22T13:06:21.475Z,2.10
2023-05-22T13:08:51.780Z,1.90
2023-05-22T13:11:22.881Z,2.00
2023-05-22T13:13:52.094Z,2.20
2023-05-22T13:16:24.734Z,2.10
2023-05-22T13:18:54.652Z,1.90
2023-05-22T13:21:25.824Z,1.80
2023-05-22T13:23:56.166Z,1.80
2023-05-22T13:26:31.548Z,1.80
2023-05-22T13:29:00.367Z,1.90
2023-05-22T13:31:37.003Z,2.20
2023-05-22T13:34:06.376Z,2.00
2023-05-22T13:36:35.747Z,1.90
2023-05-22T13:39:05.073Z,2.00
2023-05-22T13:41:34.705Z,2.50
2023-05-22T13:44:06.094Z,2.00
2023-05-22T13:46:38.663Z,2.10
2023-05-22T13:49:09.575Z,2.00
2023-05-22T13:51:41.345Z,2.10
2023-05-22T13:54:14.166Z,2.00
2023-05-22T13:56:46.576Z,2.10
2023-05-22T13:59:16.709Z,2.10
2023-05-22T14:01:45.907Z,2.00
2023-05-22T14:04:14.796Z,2.20
2023-05-22T14:06:47.077Z,2.10
2023-05-22T14:09:21.945Z,1.90
2023-05-22T14:11:54.988Z,1.80
2023-05-22T14:14:24.139Z,2.20
2023-05-22T14:16:53.596Z,2.00
2023-05-22T14:19:22.438Z,1.90
2023-05-22T14:21:58.729Z,1.80
2023-05-22T14:24:29.251Z,2.20
2023-05-22T14:26:58.758Z,1.90
2023-05-22T14:29:30.647Z,1.80
2023-05-22T14:32:04.557Z,2.00
2023-05-22T14:34:33.304Z,2.20
2023-05-22T14:37:02.232Z,2.00
2023-05-22T14:39:30.967Z,1.90
2023-05-22T14:42:00.460Z,2.20
2023-05-22T14:44:29.244Z,1.90
2023-05-22T14:46:59.754Z,1.90
2023-05-22T14:49:28.442Z,2.00
2023-05-22T14:51:58.243Z,2.30
2023-05-22T14:54:26.944Z,1.80
2023-05-22T14:56:55.728Z,2.10
2023-05-22T14:59:24.468Z,2.10
2023-05-22T15:01:53.673Z,2.20
2023-05-22T15:04:23.416Z,1.90
2023-05-22T15:06:53.320Z,1.70
2023-05-22T15:09:22.261Z,2.00
2023-05-22T15:11:51.183Z,1.80
2023-05-22T15:14:21.022Z,1.90
2023-05-22T15:16:50.197Z,2.50
2023-05-22T15:19:19.281Z,1.90
2023-05-22T15:21:48.316Z,2.00
2023-05-22T15:24:20.297Z,1.80
2023-05-22T15:26:49.403Z,2.00
2023-05-22T15:29:19.072Z,1.90
2023-05-22T15:31:48.393Z,2.00
2023-05-22T15:34:20.241Z,2.20
2023-05-22T15:36:49.236Z,1.90
2023-05-22T15:39:21.328Z,2.30
2023-05-22T15:42:02.233Z,1.90
2023-05-22T15:44:34.846Z,2.00
2023-05-22T15:47:04.299Z,2.00
2023-05-22T15:49:34.415Z,1.80
2023-05-22T15:52:05.945Z,2.10
2023-05-22T15:54:35.039Z,2.20
2023-05-22T15:57:05.760Z,1.90
2023-05-22T15:59:34.940Z,2.20
2023-05-22T16:02:05.172Z,1.60
2023-05-22T16:04:33.934Z,1.90
2023-05-22T16:07:03.662Z,1.70
2023-05-22T16:09:35.780Z,1.80
2023-05-22T16:12:05.630Z,1.70
2023-05-22T16:14:34.652Z,2.10
2023-05-22T16:17:08.256Z,1.90
2023-05-22T16:19:37.486Z,1.80
2023-05-22T16:22:06.859Z,1.90
2023-05-22T16:24:35.537Z,2.20
2023-05-22T16:27:07.350Z,1.90
2023-05-22T16:29:36.306Z,1.70
2023-05-22T16:32:05.948Z,1.90
2023-05-22T16:34:37.564Z,1.70
2023-05-22T16:37:06.537Z,2.00
2023-05-22T16:39:35.560Z,2.10
2023-05-22T16:42:05.637Z,1.70
2023-05-22T16:44:34.464Z,1.70
2023-05-22T16:47:07.047Z,2.20
2023-05-22T16:49:36.453Z,1.80
2023-05-22T16:52:05.984Z,2.20
2023-05-22T16:54:36.347Z,2.20
2023-05-22T16:57:12.821Z,2.10
2023-05-22T16:59:41.499Z,1.90
2023-05-22T17:02:10.746Z,2.20
2023-05-22T17:04:40.498Z,2.20
2023-05-22T17:07:09.041Z,1.90
2023-05-22T17:09:37.919Z,1.70
2023-05-22T17:12:08.309Z,1.90
2023-05-22T17:14:37.094Z,2.10
2023-05-22T17:17:08.883Z,2.20
2023-05-22T17:19:38.105Z,1.90
2023-05-22T17:22:08.580Z,2.10
2023-05-22T17:24:37.467Z,1.90
2023-05-22T17:27:10.065Z,2.20
2023-05-22T17:29:38.851Z,2.40
2023-05-22T17:32:11.085Z,2.00
2023-05-22T17:34:40.441Z,2.20
2023-05-22T17:37:10.269Z,1.60
2023-05-22T17:39:40.860Z,1.90
2023-05-22T17:42:12.363Z,2.20
2023-05-22T17:44:43.457Z,2.10
2023-05-22T17:47:13.132Z,2.50
2023-05-22T17:49:41.864Z,2.50
2023-05-22T17:52:12.487Z,2.00
2023-05-22T17:54:41.382Z,2.10
2023-05-22T17:57:10.534Z,3.40
2023-05-22T17:59:42.767Z,2.40
2023-05-22T18:02:11.661Z,2.30
2023-05-22T18:04:44.152Z,2.60
2023-05-22T18:07:13.114Z,2.70
2023-05-22T18:09:42.568Z,2.20
2023-05-22T18:12:31.158Z,1.80
2023-05-22T18:15:01.579Z,2.40
2023-05-22T18:17:35.213Z,1.90
2023-05-22T18:20:11.064Z,1.70
2023-05-22T18:22:43.576Z,2.10
2023-05-22T18:25:12.762Z,1.60
2023-05-22T18:27:51.563Z,1.90
2023-05-22T18:30:24.145Z,2.00
2023-05-22T18:32:52.985Z,1.70
2023-05-22T18:35:23.324Z,1.60
2023-05-22T18:37:59.216Z,1.50
2023-05-22T18:40:28.024Z,2.30
2023-05-22T18:42:56.916Z,1.90
2023-05-22T18:45:25.569Z,1.90
2023-05-22T18:47:54.519Z,2.00
2023-05-22T18:50:23.915Z,1.80
2023-05-22T18:52:54.179Z,1.90
2023-05-22T18:55:24.206Z,1.90
2023-05-22T18:57:54.340Z,2.10
2023-05-22T19:00:30.228Z,1.70
2023-05-22T19:02:59.170Z,2.10
2023-05-22T19:05:28.289Z,2.00
2023-05-22T19:07:57.424Z,1.80
2023-05-22T19:10:28.642Z,1.80
2023-05-22T19:12:57.764Z,2.00
2023-05-22T19:15:26.686Z,2.10
2023-05-22T19:17:55.742Z,1.80
2023-05-22T19:20:26.657Z,1.80
2023-05-22T19:22:56.250Z,2.30
2023-05-22T19:25:25.431Z,2.30
2023-05-22T19:27:54.445Z,2.00
2023-05-22T19:30:23.318Z,1.70
2023-05-22T19:32:55.187Z,2.10
2023-05-22T19:35:23.811Z,2.20
2023-05-22T19:37:53.102Z,2.40
2023-05-22T19:40:24.428Z,2.20
2023-05-22T19:42:53.202Z,2.10
2023-05-22T19:45:26.129Z,2.10
2023-05-22T19:47:56.099Z,2.50
2023-05-22T19:50:26.596Z,2.30
2023-05-22T19:52:55.953Z,2.40
2023-05-22T19:55:25.184Z,2.10
2023-05-22T19:57:55.853Z,2.30
2023-05-22T20:00:27.804Z,2.70
2023-05-22T20:02:57.501Z,2.30
2023-05-22T20:05:26.452Z,2.80
2023-05-22T20:07:57.738Z,2.70
2023-05-22T20:10:26.484Z,2.20
2023-05-22T20:12:56.079Z,2.50
2023-05-22T20:15:25.496Z,3.40
2023-05-22T20:17:57.592Z,3.10
2023-05-22T20:20:26.310Z,2.90
2023-05-22T20:22:58.054Z,2.60
2023-05-22T20:25:27.128Z,2.80
2023-05-22T20:27:56.083Z,2.50
2023-05-22T20:30:24.891Z,2.60
2023-05-22T20:32:53.843Z,2.60
2023-05-22T20:35:26.066Z,2.90
2023-05-22T20:37:55.270Z,2.80
2023-05-22T20:40:26.167Z,2.80
2023-05-22T20:42:56.525Z,2.70
2023-05-22T20:45:25.991Z,2.40
2023-05-22T20:47:55.927Z,2.40
2023-05-22T20:50:24.625Z,3.30
2023-05-22T20:52:54.092Z,3.70
2023-05-22T20:55:25.035Z,3.60
2023-05-22T20:57:54.201Z,3.00
2023-05-22T21:00:23.727Z,2.70
2023-05-22T21:02:58.093Z,3.20
2023-05-22T21:05:27.318Z,3.10
2023-05-22T21:07:57.627Z,3.20
2023-05-22T21:10:27.005Z,2.70
2023-05-22T21:12:55.925Z,3.50
2023-05-22T21:15:27.567Z,3.00
2023-05-22T21:17:57.739Z,3.10
2023-05-22T21:20:27.520Z,2.90
2023-05-22T21:22:56.511Z,3.50
2023-05-22T21:25:25.475Z,2.70
2023-05-22T21:27:54.578Z,2.60
2023-05-22T21:30:23.174Z,2.90
2023-05-22T21:32:53.435Z,2.80
2023-05-22T21:35:24.216Z,3.30
2023-05-22T21:37:53.712Z,3.20
2023-05-22T21:40:22.384Z,3.40
2023-05-22T21:42:51.177Z,3.20
2023-05-22T21:45:23.627Z,3.60
2023-05-22T21:47:52.727Z,3.20
2023-05-22T21:50:21.781Z,3.10
2023-05-22T21:52:50.882Z,2.90
2023-05-22T21:55:23.511Z,3.00
2023-05-22T21:57:52.645Z,3.10
2023-05-22T22:00:23.553Z,3.10
2023-05-22T22:02:52.593Z,2.50
2023-05-22T22:05:21.800Z,3.20
2023-05-22T22:07:50.973Z,2.80
2023-05-22T22:10:19.749Z,3.00
2023-05-22T22:12:52.118Z,3.20
2023-05-22T22:15:22.148Z,2.90
2023-05-22T22:17:53.728Z,3.10
2023-05-22T22:20:30.522Z,3.40
2023-05-22T22:23:22.322Z,2.80
2023-05-22T22:25:53.538Z,2.80
2023-05-22T22:28:25.462Z,3.00
2023-05-22T22:30:54.322Z,3.20
2023-05-22T22:33:24.531Z,2.90
2023-05-22T22:35:55.796Z,3.00
2023-05-22T22:55:47.019Z,2.90
2023-05-22T22:58:21.058Z,2.70
2023-05-22T23:00:55.571Z,3.60
2023-05-22T23:03:26.619Z,3.10
2023-05-22T23:05:57.826Z,3.20
2023-05-22T23:08:29.107Z,3.00
2023-05-22T23:10:58.439Z,3.00
2023-05-22T23:13:30.361Z,3.10
2023-05-22T23:16:03.053Z,2.60
2023-05-22T23:18:33.978Z,2.90
2023-05-22T23:21:03.301Z,3.30
2023-05-22T23:23:34.741Z,2.80
2023-05-22T23:26:03.534Z,2.80
2023-05-22T23:28:43.050Z,3.30
2023-05-22T23:31:13.661Z,2.90
2023-05-22T23:33:47.570Z,3.00
2023-05-22T23:36:17.505Z,2.70
2023-05-22T23:38:46.887Z,3.40
2023-05-22T23:41:23.964Z,3.10
2023-05-22T23:43:56.658Z,3.00
2023-05-22T23:46:25.110Z,3.00
2023-05-22T23:48:54.447Z,3.30
2023-05-22T23:51:24.513Z,3.00
2023-05-22T23:53:54.397Z,3.70
2023-05-22T23:56:34.499Z,3.00
2023-05-22T23:59:03.846Z,3.60
